Time;durP1;ratioP1;P1;durP2;ratioP2;P2;SDS_P1;SDS_P2;PMS_P1;PMS_P2;Temp;Humidity;BMP_temperature;BMP_pressure;BME280_temperature;BME280_humidity;BME280_pressure;Samples;Min_cycle;Max_cycle;Signal;HPM_P1;HPM_P2
2023/04/22 00:00:27;;;;;;;41.85;22.63;;;;;;;4.79;100.00;100965.16;5034586;28;20042;-72
2023/04/22 00:02:54;;;;;;;49.40;24.75;;;;;;;4.74;100.00;100965.47;5034733;28;20040;-72
2023/04/22 00:05:20;;;;;;;35.08;21.17;;;;;;;4.68;100.00;100960.56;5034697;28;20498;-71
2023/04/22 00:07:46;;;;;;;31.40;18.70;;;;;;;4.62;100.00;100968.88;5034606;28;20033;-72
2023/04/22 00:10:12;;;;;;;33.13;20.40;;;;;;;4.55;100.00;100968.44;5035301;28;20025;-72
2023/04/22 00:12:37;;;;;;;34.35;19.65;;;;;;;4.52;100.00;100962.50;5034489;28;20040;-72
2023/04/22 00:15:03;;;;;;;31.80;19.45;;;;;;;4.46;100.00;100960.25;5034618;28;20029;-71
2023/04/22 00:17:29;;;;;;;33.05;19.55;;;;;;;4.38;100.00;100958.09;5034621;28;20029;-72
2023/04/22 00:19:55;;;;;;;33.13;19.33;;;;;;;4.35;100.00;100960.94;5035049;28;20456;-71
2023/04/22 00:22:20;;;;;;;33.85;19.90;;;;;;;4.33;100.00;100960.16;5033332;28;20029;-72
2023/04/22 00:24:45;;;;;;;39.08;21.58;;;;;;;4.29;100.00;100951.63;5034051;28;20137;-72
2023/04/22 00:27:11;;;;;;;35.58;21.02;;;;;;;4.27;100.00;100964.06;5034434;28;20034;-71
2023/04/22 00:29:36;;;;;;;35.40;20.13;;;;;;;4.23;100.00;100960.75;5034606;28;20045;-71
2023/04/22 00:32:02;;;;;;;38.35;20.80;;;;;;;4.17;100.00;100961.13;5034398;28;20438;-71
2023/04/22 00:34:27;;;;;;;33.38;19.67;;;;;;;4.14;100.00;100956.06;5034617;28;20037;-75
2023/04/22 00:36:53;;;;;;;39.63;22.10;;;;;;;4.13;100.00;100951.72;5034155;28;20032;-71
2023/04/22 00:39:18;;;;;;;41.08;23.13;;;;;;;4.13;100.00;100954.34;5033105;28;20072;-72
2023/04/22 00:41:45;;;;;;;35.13;21.13;;;;;;;4.12;100.00;100955.31;5033577;28;20033;-70
2023/04/22 00:44:11;;;;;;;36.15;22.67;;;;;;;4.07;100.00;100962.63;5033671;28;20041;-72
2023/04/22 00:46:38;;;;;;;49.10;26.10;;;;;;;4.06;100.00;100972.31;5033576;28;20124;-71
2023/04/22 00:49:04;;;;;;;42.60;23.35;;;;;;;4.03;100.00;100959.34;5033636;28;20029;-71
2023/04/22 00:51:30;;;;;;;57.95;26.88;;;;;;;4.10;100.00;100964.25;5032051;28;20057;-71
2023/04/22 00:53:56;;;;;;;55.28;25.88;;;;;;;4.15;100.00;100963.03;5033414;28;20056;-71
2023/04/22 00:56:25;;;;;;;44.92;23.80;;;;;;;4.16;100.00;100963.84;5033483;28;20033;-72
2023/04/22 00:58:52;;;;;;;42.83;22.67;;;;;;;4.13;100.00;100956.97;5033595;28;20030;-71
2023/04/22 01:01:17;;;;;;;65.28;30.98;;;;;;;4.11;100.00;100964.13;5033724;28;20044;-71
2023/04/22 01:03:45;;;;;;;40.55;22.88;;;;;;;4.07;100.00;100957.38;5033706;28;20038;-71
2023/04/22 01:06:10;;;;;;;39.10;22.10;;;;;;;4.04;100.00;100961.03;5033229;28;20426;-72
2023/04/22 01:08:36;;;;;;;41.40;23.58;;;;;;;4.02;100.00;100960.28;5033607;28;20029;-72
2023/04/22 01:11:01;;;;;;;44.65;23.92;;;;;;;4.04;100.00;100962.81;5033083;28;20120;-72
2023/04/22 01:13:27;;;;;;;41.33;22.42;;;;;;;4.05;100.00;100956.63;5033259;28;20025;-73
2023/04/22 01:15:52;;;;;;;41.85;23.90;;;;;;;4.00;100.00;100963.94;5033589;28;20041;-71
2023/04/22 01:18:18;;;;;;;43.28;24.33;;;;;;;3.93;100.00;100960.84;5033698;28;20083;-71
2023/04/22 01:20:44;;;;;;;40.78;22.65;;;;;;;3.89;100.00;100961.97;5033206;28;20487;-71
2023/04/22 01:23:20;;;;;;;40.38;23.27;;;;;;;3.85;100.00;100953.41;5032999;28;20116;-71
2023/04/22 01:25:46;;;;;;;35.88;21.50;;;;;;;3.84;100.00;100959.63;5032940;28;20060;-72
2023/04/22 01:28:12;;;;;;;33.25;20.23;;;;;;;3.82;100.00;100958.88;5032824;28;20041;-71
2023/04/22 01:30:38;;;;;;;45.22;24.90;;;;;;;3.82;100.00;100958.88;5032908;28;20037;-71
2023/04/22 01:33:05;;;;;;;40.13;22.90;;;;;;;3.82;100.00;100956.25;5031630;28;20538;-71
2023/04/22 01:35:35;;;;;;;40.08;22.52;;;;;;;3.81;100.00;100951.91;5033014;28;20080;-71
2023/04/22 01:38:02;;;;;;;47.92;25.35;;;;;;;3.82;100.00;100958.00;5032973;28;20036;-71
2023/04/22 01:40:30;;;;;;;48.10;22.92;;;;;;;3.76;100.00;100953.94;5032585;28;20041;-71
2023/04/22 01:42:56;;;;;;;54.70;25.55;;;;;;;3.73;100.00;100954.13;5033119;28;20356;-71
2023/04/22 01:45:21;;;;;;;38.72;22.02;;;;;;;3.69;100.00;100945.59;5032733;28;20026;-71
2023/04/22 01:47:47;;;;;;;50.63;25.60;;;;;;;3.66;100.00;100942.31;5033537;28;20474;-71
2023/04/22 01:50:12;;;;;;;37.05;21.92;;;;;;;3.61;100.00;100941.72;5032840;28;20036;-72
2023/04/22 01:52:38;;;;;;;35.35;20.50;;;;;;;3.51;100.00;100946.69;5031220;28;20044;-72
2023/04/22 01:55:04;;;;;;;37.63;20.38;;;;;;;3.43;100.00;100943.66;5033313;28;20029;-71
2023/04/22 01:57:30;;;;;;;39.22;21.88;;;;;;;3.35;100.00;100937.06;5033529;28;20033;-72
2023/04/22 01:59:57;;;;;;;34.97;20.00;;;;;;;3.31;100.00;100946.09;5038083;28;20030;-71
2023/04/22 02:02:22;;;;;;;33.47;19.85;;;;;;;3.27;100.00;100941.94;5039595;28;20112;-71
2023/04/22 02:04:48;;;;;;;38.17;20.13;;;;;;;3.23;100.00;100939.59;5039295;28;20482;-71
2023/04/22 02:07:13;;;;;;;34.75;20.27;;;;;;;3.19;100.00;100944.16;5039252;28;20029;-71
2023/04/22 02:09:38;;;;;;;28.48;19.23;;;;;;;3.13;100.00;100940.09;5038517;28;20116;-74
2023/04/22 02:12:04;;;;;;;32.40;19.48;;;;;;;3.09;100.00;100943.84;5039001;28;20041;-71
2023/04/22 02:14:29;;;;;;;36.53;21.55;;;;;;;3.04;100.00;100942.41;5039141;28;20467;-71
2023/04/22 02:16:55;;;;;;;36.70;20.83;;;;;;;3.02;100.00;100941.66;5038972;28;20521;-71
2023/04/22 02:19:20;;;;;;;39.55;22.42;;;;;;;2.99;100.00;100933.00;5038936;28;20033;-71
2023/04/22 02:21:46;;;;;;;35.92;20.80;;;;;;;2.98;100.00;100938.34;5038943;28;20066;-71
2023/04/22 02:24:11;;;;;;;40.70;22.23;;;;;;;2.95;100.00;100936.72;5039397;28;20491;-71
2023/04/22 02:26:36;;;;;;;37.40;22.00;;;;;;;2.95;100.00;100936.72;5021381;28;20049;-71
2023/04/22 02:29:02;;;;;;;34.15;20.15;;;;;;;2.93;100.00;100937.78;5038630;28;20042;-71
2023/04/22 02:31:27;;;;;;;35.95;19.05;;;;;;;2.95;100.00;100938.53;5038833;28;20145;-72
2023/04/22 02:33:52;;;;;;;27.02;16.40;;;;;;;2.93;100.00;100933.34;5038465;28;20044;-71
2023/04/22 02:36:18;;;;;;;36.00;15.82;;;;;;;2.94;100.00;100935.06;5039481;28;20029;-71
2023/04/22 02:38:43;;;;;;;29.00;15.20;;;;;;;2.95;100.00;100930.66;5038885;28;20123;-73
2023/04/22 02:41:08;;;;;;;23.63;14.57;;;;;;;2.96;100.00;100924.47;5039005;28;20048;-71
2023/04/22 02:43:34;;;;;;;31.48;15.77;;;;;;;2.95;100.00;100931.47;5038966;28;20037;-71
2023/04/22 02:45:59;;;;;;;47.97;16.75;;;;;;;2.96;100.00;100927.09;5039068;28;20036;-71
2023/04/22 02:48:26;;;;;;;38.95;18.42;;;;;;;2.98;100.00;100927.84;5038983;28;20056;-71
2023/04/22 02:50:51;;;;;;;39.63;17.83;;;;;;;2.97;100.00;100918.25;5038058;28;20057;-71
2023/04/22 02:53:16;;;;;;;34.55;15.70;;;;;;;2.99;100.00;100930.38;5038578;28;20045;-70
2023/04/22 02:55:42;;;;;;;28.17;15.68;;;;;;;2.98;100.00;100928.66;5038261;28;20048;-72
2023/04/22 02:58:08;;;;;;;36.17;18.02;;;;;;;2.96;100.00;100924.47;5038104;28;20108;-70
2023/04/22 03:00:33;;;;;;;34.55;17.58;;;;;;;2.93;100.00;100917.59;5038299;28;20033;-73
2023/04/22 03:02:59;;;;;;;41.35;19.23;;;;;;;2.90;100.00;100916.94;5038534;28;20034;-71
2023/04/22 03:05:24;;;;;;;39.63;19.50;;;;;;;2.86;100.00;100915.41;5038645;28;20106;-71
2023/04/22 03:07:50;;;;;;;38.97;18.50;;;;;;;2.84;100.00;100910.22;5038856;28;20356;-71
2023/04/22 03:10:15;;;;;;;54.33;23.08;;;;;;;2.85;100.00;100913.69;5035408;28;20033;-71
2023/04/22 03:12:40;;;;;;;47.40;22.05;;;;;;;2.87;100.00;100917.94;5035196;28;20048;-71
2023/04/22 03:15:06;;;;;;;56.95;24.65;;;;;;;2.92;100.00;100910.63;5035539;28;20191;-71
2023/04/22 03:17:32;;;;;;;46.35;23.25;;;;;;;2.93;100.00;100906.25;5035220;28;20037;-71
2023/04/22 03:19:57;;;;;;;54.63;23.17;;;;;;;2.94;100.00;100908.78;5035379;28;20411;-71
2023/04/22 03:22:22;;;;;;;49.22;22.48;;;;;;;2.97;100.00;100899.84;5035031;28;20475;-72
2023/04/22 03:24:48;;;;;;;53.72;23.27;;;;;;;2.99;100.00;100896.19;5035262;28;20464;-74
2023/04/22 03:27:13;;;;;;;64.55;23.77;;;;;;;3.04;100.00;100898.56;5035783;28;20196;-72
2023/04/22 03:29:38;;;;;;;56.08;25.30;;;;;;;3.05;100.00;100895.00;5034379;28;20402;-71
2023/04/22 03:32:04;;;;;;;47.45;21.35;;;;;;;3.03;100.00;100896.88;5034987;28;20088;-71
2023/04/22 03:34:29;;;;;;;46.67;23.00;;;;;;;3.02;100.00;100897.81;5035256;28;20044;-71
2023/04/22 03:36:55;;;;;;;105.60;26.38;;;;;;;3.04;100.00;100900.34;5034949;28;20376;-71
2023/04/22 03:39:20;;;;;;;57.38;25.73;;;;;;;3.08;100.00;100899.25;5033520;28;20029;-71
2023/04/22 03:41:45;;;;;;;59.05;25.27;;;;;;;3.09;100.00;100895.66;5034535;28;20113;-71
2023/04/22 03:44:11;;;;;;;64.65;27.00;;;;;;;3.10;100.00;100890.31;5034225;28;20033;-71
2023/04/22 03:46:36;;;;;;;68.78;26.27;;;;;;;3.10;100.00;100892.94;5035151;28;20080;-71
2023/04/22 03:49:02;;;;;;;56.17;24.65;;;;;;;3.13;100.00;100881.41;5034320;28;20060;-72
2023/04/22 03:51:27;;;;;;;59.70;25.95;;;;;;;3.13;100.00;100874.34;5034703;28;20108;-71
2023/04/22 03:53:53;;;;;;;61.03;26.98;;;;;;;3.14;100.00;100878.69;5034671;28;20029;-72
2023/04/22 03:56:18;;;;;;;70.57;28.75;;;;;;;3.18;100.00;100874.13;5034217;28;20371;-71
2023/04/22 03:58:43;;;;;;;71.25;28.67;;;;;;;3.18;100.00;100868.84;5035000;28;20057;-71
2023/04/22 04:01:10;;;;;;;59.17;26.58;;;;;;;3.17;100.00;100873.25;5032860;28;20033;-71
2023/04/22 04:03:35;;;;;;;67.60;28.55;;;;;;;3.21;100.00;100873.06;5034791;28;20038;-71
2023/04/22 04:06:00;;;;;;;83.20;29.83;;;;;;;3.22;100.00;100864.25;5033968;28;20102;-72
2023/04/22 04:08:26;;;;;;;72.53;30.40;;;;;;;3.21;100.00;100865.19;5033729;28;20041;-71
2023/04/22 04:10:51;;;;;;;73.25;29.42;;;;;;;3.20;100.00;100858.25;5034855;28;20026;-71
2023/04/22 04:13:17;;;;;;;88.82;32.58;;;;;;;3.22;100.00;100861.63;5034443;28;20037;-71
2023/04/22 04:15:42;;;;;;;75.20;30.30;;;;;;;3.21;100.00;100863.41;5034334;28;20494;-71
2023/04/22 04:18:08;;;;;;;82.10;31.75;;;;;;;3.24;100.00;100862.38;5034018;28;20037;-71
2023/04/22 04:20:33;;;;;;;83.97;31.00;;;;;;;3.24;100.00;100863.22;5033628;28;20140;-71
2023/04/22 04:22:59;;;;;;;72.60;29.77;;;;;;;3.24;100.00;100857.09;5033701;28;20122;-71
2023/04/22 04:25:24;;;;;;;73.63;29.25;;;;;;;3.22;100.00;100848.47;5034103;28;20033;-71
2023/04/22 04:27:50;;;;;;;82.90;31.23;;;;;;;3.23;100.00;100851.00;5033990;28;20041;-71
2023/04/22 04:30:16;;;;;;;71.82;29.58;;;;;;;3.23;100.00;100858.06;5033393;28;20116;-71
2023/04/22 04:32:44;;;;;;;83.38;31.98;;;;;;;3.18;100.00;100855.72;5034095;28;20120;-71
2023/04/22 04:35:11;;;;;;;84.07;33.08;;;;;;;3.14;100.00;100851.56;5034045;28;20080;-71
2023/04/22 04:37:39;;;;;;;75.68;27.55;;;;;;;3.11;100.00;100852.56;5033637;28;20090;-71
2023/04/22 04:40:06;;;;;;;85.45;31.42;;;;;;;3.14;100.00;100852.41;5034527;28;20037;-72
2023/04/22 04:42:32;;;;;;;82.75;31.58;;;;;;;3.17;100.00;100852.22;5033889;28;20037;-71
2023/04/22 04:44:58;;;;;;;86.22;33.42;;;;;;;3.17;100.00;100859.25;5032533;28;20083;-74
2023/04/22 04:47:24;;;;;;;94.45;32.38;;;;;;;3.21;100.00;100858.16;5033893;28;20053;-71
2023/04/22 04:49:52;;;;;;;101.03;35.33;;;;;;;3.27;100.00;100852.53;5033733;28;20025;-71
2023/04/22 04:52:17;;;;;;;109.55;35.63;;;;;;;3.31;100.00;100861.94;5034156;28;20053;-71
2023/04/22 04:54:43;;;;;;;102.35;36.83;;;;;;;3.38;100.00;100853.66;5033088;28;20033;-70
2023/04/22 04:57:09;;;;;;;105.65;36.80;;;;;;;3.43;100.00;100852.44;5033632;28;20033;-71
2023/04/22 04:59:34;;;;;;;99.00;36.15;;;;;;;3.48;100.00;100839.03;5033661;28;20033;-70
2023/04/22 05:01:59;;;;;;;107.85;35.47;;;;;;;3.55;100.00;100839.47;5033532;28;20037;-74
2023/04/22 05:04:25;;;;;;;98.90;35.92;;;;;;;3.58;100.00;100834.03;5033560;28;20112;-72
2023/04/22 05:06:50;;;;;;;102.60;36.55;;;;;;;3.65;100.00;100840.63;5033526;28;20446;-70
2023/04/22 05:09:16;;;;;;;106.40;36.30;;;;;;;3.68;100.00;100833.34;5033218;28;20029;-70
2023/04/22 05:11:41;;;;;;;107.35;36.13;;;;;;;3.75;100.00;100832.97;5033494;28;20072;-71
2023/04/22 05:14:07;;;;;;;100.78;36.13;;;;;;;3.83;100.00;100838.63;5033815;28;20374;-71
2023/04/22 05:16:32;;;;;;;95.38;34.92;;;;;;;3.87;100.00;100832.22;5033314;28;20030;-71
2023/04/22 05:18:57;;;;;;;111.88;37.35;;;;;;;3.91;100.00;100831.06;5033277;28;20036;-71
2023/04/22 05:21:23;;;;;;;114.07;38.25;;;;;;;3.98;100.00;100831.56;5032927;28;20535;-71
2023/04/22 05:23:48;;;;;;;101.28;36.53;;;;;;;4.02;100.00;100844.44;5033177;28;20041;-71
2023/04/22 05:26:14;;;;;;;91.15;35.97;;;;;;;4.05;100.00;100852.13;5033115;28;20119;-71
2023/04/22 05:28:39;;;;;;;116.40;39.50;;;;;;;4.11;100.00;100860.59;5033252;28;20038;-71
2023/04/22 05:31:05;;;;;;;113.57;38.20;;;;;;;4.16;100.00;100858.50;5032011;28;20033;-72
2023/04/22 05:33:31;;;;;;;118.60;40.95;;;;;;;4.23;100.00;100857.19;5030741;28;20037;-71
2023/04/22 05:35:56;;;;;;;125.63;42.60;;;;;;;4.29;100.00;100856.78;5032683;28;20041;-71
2023/04/22 05:38:21;;;;;;;129.68;44.25;;;;;;;4.37;100.00;100853.66;5033013;28;20033;-72
2023/04/22 05:40:47;;;;;;;138.95;45.33;;;;;;;4.41;100.00;100858.63;5032978;28;20201;-71
2023/04/22 05:43:12;;;;;;;120.18;42.55;;;;;;;4.48;100.00;100861.72;5032734;28;20041;-72
2023/04/22 05:45:38;;;;;;;116.57;41.58;;;;;;;4.54;100.00;100852.59;5031691;28;20065;-71
2023/04/22 05:48:03;;;;;;;136.38;44.47;;;;;;;4.63;100.00;100856.38;5032826;28;20518;-71
2023/04/22 05:50:28;;;;;;;135.32;43.00;;;;;;;4.69;100.00;100856.84;5032689;28;20479;-71
2023/04/22 05:52:54;;;;;;;122.45;43.30;;;;;;;4.79;100.00;100869.41;5032287;28;20072;-71
2023/04/22 05:55:19;;;;;;;129.32;45.22;;;;;;;4.86;100.00;100871.53;5032630;28;20041;-72
2023/04/22 05:57:45;;;;;;;146.45;47.38;;;;;;;4.99;100.00;100865.47;5032500;28;20485;-71
2023/04/22 06:00:10;;;;;;;139.55;46.72;;;;;;;5.09;100.00;100859.47;5032638;28;20033;-72
2023/04/22 06:02:36;;;;;;;164.75;49.65;;;;;;;5.22;100.00;100859.47;5032914;28;20029;-72
2023/04/22 06:05:01;;;;;;;144.50;47.72;;;;;;;5.31;100.00;100852.72;5032326;28;20029;-72
2023/04/22 06:07:26;;;;;;;137.65;47.20;;;;;;;5.39;100.00;100847.78;5032822;28;20083;-71
2023/04/22 06:09:52;;;;;;;138.85;48.20;;;;;;;5.47;100.00;100852.53;5032615;28;20025;-72
2023/04/22 06:12:17;;;;;;;133.05;47.58;;;;;;;5.53;100.00;100843.34;5032781;28;20364;-72
2023/04/22 06:14:43;;;;;;;123.93;45.10;;;;;;;5.58;100.00;100842.09;5031552;28;20036;-71
2023/04/22 06:17:08;;;;;;;120.53;44.55;;;;;;;5.63;100.00;100837.31;5032642;28;20030;-73
2023/04/22 06:19:34;;;;;;;124.82;46.83;;;;;;;5.68;100.00;100837.00;5032718;28;20116;-72
2023/04/22 06:21:59;;;;;;;118.57;48.55;;;;;;;5.74;100.00;100841.00;5032609;28;20440;-72
2023/04/22 06:24:25;;;;;;;107.75;43.80;;;;;;;5.78;100.00;100838.03;5032511;28;20044;-72
2023/04/22 06:26:50;;;;;;;113.55;44.42;;;;;;;5.89;100.00;100842.56;5032598;28;20037;-72
2023/04/22 06:29:15;;;;;;;109.72;43.25;;;;;;;6.00;100.00;100833.91;5032986;28;20076;-72
2023/04/22 06:31:41;;;;;;;104.47;42.25;;;;;;;6.11;100.00;100826.06;5031319;28;20453;-72
2023/04/22 06:34:06;;;;;;;100.68;42.67;;;;;;;6.21;100.00;100820.09;5032784;28;20037;-72
2023/04/22 06:36:36;;;;;;;102.38;40.22;;;;;;;6.32;100.00;100820.19;5031171;28;20025;-72
2023/04/22 06:39:03;;;;;;;100.60;40.65;;;;;;;6.45;100.00;100818.31;5032389;28;20471;-72
2023/04/22 06:41:28;;;;;;;93.68;40.13;;;;;;;6.58;100.00;100820.88;5032245;28;20492;-72
2023/04/22 06:43:53;;;;;;;86.05;39.15;;;;;;;6.70;100.00;100821.78;5032868;28;20044;-71
2023/04/22 06:46:19;;;;;;;96.72;41.17;;;;;;;6.87;100.00;100829.31;5036387;28;20060;-72
2023/04/22 06:48:44;;;;;;;79.15;39.00;;;;;;;7.02;100.00;100823.81;5036202;28;20038;-72
2023/04/22 06:51:10;;;;;;;92.80;42.38;;;;;;;7.17;100.00;100824.47;5036603;28;20041;-72
2023/04/22 06:53:35;;;;;;;71.75;37.33;;;;;;;7.31;100.00;100820.75;5035886;28;20506;-72
2023/04/22 06:56:00;;;;;;;64.50;33.97;;;;;;;7.37;100.00;100825.56;5036031;28;20413;-72
2023/04/22 06:58:26;;;;;;;62.05;34.42;;;;;;;7.40;100.00;100827.97;5035985;28;20030;-72
2023/04/22 07:00:51;;;;;;;65.88;34.70;;;;;;;7.52;100.00;100823.53;5035915;28;20037;-71
2023/04/22 07:03:16;;;;;;;62.30;33.38;;;;;;;7.57;100.00;100829.31;5036101;28;20036;-72
2023/04/22 07:05:42;;;;;;;52.28;31.55;;;;;;;7.63;100.00;100812.97;5035863;28;20030;-71
2023/04/22 07:08:07;;;;;;;58.33;32.75;;;;;;;7.72;100.00;100816.69;5035883;28;20069;-71
2023/04/22 07:10:33;;;;;;;61.20;33.63;;;;;;;7.93;100.00;100809.66;5035955;28;20041;-71
2023/04/22 07:12:58;;;;;;;49.55;31.30;;;;;;;8.11;100.00;100817.13;5035475;28;20495;-71
2023/04/22 07:15:24;;;;;;;51.78;32.50;;;;;;;8.29;100.00;100823.56;5035362;28;20538;-71
2023/04/22 07:17:49;;;;;;;44.15;28.20;;;;;;;8.39;100.00;100817.50;5035594;28;20025;-71
2023/04/22 07:20:14;;;;;;;45.50;29.13;;;;;;;8.55;100.00;100811.84;5034450;28;20117;-71
2023/04/22 07:22:40;;;;;;;44.50;28.85;;;;;;;8.77;100.00;100816.19;5035600;28;20064;-72
2023/04/22 07:25:06;;;;;;;43.67;28.80;;;;;;;9.00;100.00;100808.94;5035637;28;20061;-72
2023/04/22 07:27:32;;;;;;;43.45;28.17;;;;;;;9.17;100.00;100813.69;5035439;28;20037;-72
2023/04/22 07:29:58;;;;;;;40.95;27.38;;;;;;;9.34;100.00;100806.94;5035946;28;20034;-73
2023/04/22 07:32:23;;;;;;;39.92;27.23;;;;;;;9.57;100.00;100811.22;5035709;28;20375;-72
2023/04/22 07:34:49;;;;;;;32.58;23.10;;;;;;;9.74;100.00;100820.41;5035552;28;20113;-74
2023/04/22 07:37:14;;;;;;;28.15;20.83;;;;;;;9.95;100.00;100821.16;5033928;28;20167;-73
2023/04/22 07:39:39;;;;;;;25.65;20.27;;;;;;;10.00;100.00;100826.94;5035644;28;20091;-72
2023/04/22 07:42:06;;;;;;;29.45;21.65;;;;;;;10.06;100.00;100826.38;5034856;28;20446;-72
2023/04/22 07:44:31;;;;;;;31.55;21.75;;;;;;;10.18;100.00;100832.41;5035161;28;20037;-73
2023/04/22 07:46:57;;;;;;;27.55;20.00;;;;;;;10.37;100.00;100833.47;5035414;28;20031;-73
2023/04/22 07:49:23;;;;;;;30.58;21.83;;;;;;;10.45;100.00;100820.31;5034974;28;20107;-73
2023/04/22 07:51:48;;;;;;;27.20;20.45;;;;;;;10.69;100.00;100813.72;5033421;28;20092;-73
2023/04/22 07:54:13;;;;;;;27.02;19.48;;;;;;;11.06;100.00;100805.00;5034884;28;20052;-72
2023/04/22 07:56:39;;;;;;;28.98;19.58;;;;;;;11.37;100.00;100807.47;5034060;28;20494;-71
2023/04/22 07:59:05;;;;;;;24.15;17.92;;;;;;;11.76;100.00;100797.50;5035457;28;20052;-73
2023/04/22 08:01:30;;;;;;;25.75;16.92;;;;;;;12.19;100.00;100783.66;5035586;28;20032;-73
2023/04/22 08:03:55;;;;;;;17.05;14.70;;;;;;;12.37;100.00;100773.84;5033405;28;20041;-73
2023/04/22 08:06:21;;;;;;;21.35;15.82;;;;;;;12.58;100.00;100770.03;5034466;28;20037;-75
2023/04/22 08:08:46;;;;;;;20.27;16.27;;;;;;;12.52;100.00;100771.47;5034566;28;20463;-73
2023/04/22 08:11:12;;;;;;;21.40;16.75;;;;;;;12.28;100.00;100761.41;5034167;28;20034;-73
2023/04/22 08:13:37;;;;;;;20.30;16.35;;;;;;;12.27;100.00;100762.38;5034425;28;20067;-73
2023/04/22 08:16:03;;;;;;;17.80;14.82;;;;;;;12.21;100.00;100763.88;5034627;28;20033;-72
2023/04/22 08:18:29;;;;;;;19.98;15.07;;;;;;;12.08;100.00;100763.38;5034438;28;20041;-72
2023/04/22 08:20:55;;;;;;;21.15;15.55;;;;;;;12.05;100.00;100761.03;5034786;28;20343;-71
2023/04/22 08:23:21;;;;;;;20.25;15.20;;;;;;;12.03;100.00;100761.16;5034779;28;20029;-71
2023/04/22 08:25:47;;;;;;;17.75;14.23;;;;;;;12.04;100.00;100754.84;5034908;28;20025;-72
2023/04/22 08:28:13;;;;;;;19.52;15.77;;;;;;;12.17;100.00;100765.16;5033163;28;20387;-72
2023/04/22 08:30:38;;;;;;;19.20;15.30;;;;;;;12.40;100.00;100756.69;5034095;28;20042;-72
2023/04/22 08:33:03;;;;;;;20.48;15.75;;;;;;;12.56;100.00;100766.69;5033733;28;20065;-71
2023/04/22 08:35:29;;;;;;;19.70;15.63;;;;;;;12.85;100.00;100775.25;5033443;28;20036;-72
2023/04/22 08:37:55;;;;;;;17.95;15.38;;;;;;;13.11;100.00;100773.59;5034106;28;20033;-73
2023/04/22 08:40:20;;;;;;;18.13;15.32;;;;;;;13.73;100.00;100768.94;5034229;28;20026;-73
2023/04/22 08:42:45;;;;;;;20.27;15.05;;;;;;;14.28;100.00;100756.00;5033847;28;20056;-73
2023/04/22 08:45:12;;;;;;;22.35;15.02;;;;;;;14.46;100.00;100748.69;5033967;28;20434;-73
2023/04/22 08:47:38;;;;;;;20.80;14.45;;;;;;;14.55;100.00;100754.03;5033857;28;20029;-73
2023/04/22 08:50:05;;;;;;;19.92;14.57;;;;;;;14.65;100.00;100760.09;5033880;28;20037;-73
2023/04/22 08:52:30;;;;;;;16.75;13.00;;;;;;;14.66;100.00;100752.88;5033985;28;20050;-73
2023/04/22 08:54:56;;;;;;;14.32;12.07;;;;;;;14.68;100.00;100751.72;5033574;28;20045;-73
2023/04/22 08:57:22;;;;;;;15.95;12.77;;;;;;;14.76;100.00;100746.38;5033705;28;20025;-73
2023/04/22 08:59:48;;;;;;;13.88;12.00;;;;;;;14.79;100.00;100742.50;5032445;28;20471;-74
2023/04/22 09:02:19;;;;;;;16.65;12.82;;;;;;;15.34;100.00;100730.16;5034184;28;20037;-73
2023/04/22 09:04:46;;;;;;;17.30;10.27;;;;;;;15.77;98.73;100716.38;5033338;28;20057;-74
2023/04/22 09:07:20;;;;;;;11.10;9.07;;;;;;;16.37;100.00;100721.03;5033237;28;20124;-72
2023/04/22 09:09:46;;;;;;;11.73;9.48;;;;;;;16.44;100.00;100706.91;5033355;28;20026;-72
2023/04/22 09:12:12;;;;;;;12.90;10.13;;;;;;;16.03;100.00;100710.72;5033343;28;20048;-71
2023/04/22 09:14:38;;;;;;;12.93;10.77;;;;;;;15.54;100.00;100714.50;5033068;28;20170;-72
2023/04/22 09:17:03;;;;;;;11.73;9.77;;;;;;;15.15;100.00;100704.56;5033445;28;20033;-72
2023/04/22 09:19:29;;;;;;;11.75;9.20;;;;;;;14.72;100.00;100691.47;5033539;28;20037;-71
2023/04/22 09:21:58;;;;;;;10.88;9.00;;;;;;;14.14;100.00;100687.94;5031784;28;20033;-71
2023/04/22 09:24:23;;;;;;;13.23;10.98;;;;;;;13.73;100.00;100688.72;5033593;28;20101;-71
2023/04/22 09:26:49;;;;;;;11.18;9.73;;;;;;;13.42;100.00;100699.16;5033227;28;20033;-71
2023/04/22 09:29:15;;;;;;;11.75;9.95;;;;;;;13.35;100.00;100712.28;5031622;28;20034;-71
2023/04/22 09:31:40;;;;;;;13.00;10.98;;;;;;;13.39;100.00;100700.28;5033047;28;20041;-71
2023/04/22 09:34:06;;;;;;;13.60;11.50;;;;;;;13.40;100.00;100707.31;5032862;28;20029;-71
2023/04/22 09:36:39;;;;;;;14.20;11.50;;;;;;;13.31;100.00;100708.22;5032559;28;20446;-72
2023/04/22 09:39:06;;;;;;;12.93;10.43;;;;;;;13.01;100.00;100713.09;5033081;28;20030;-72
2023/04/22 09:41:37;;;;;;;14.32;10.93;;;;;;;12.81;100.00;100727.66;5032866;28;20034;-73
2023/04/22 09:44:07;;;;;;;13.15;11.23;;;;;;;12.65;100.00;100723.88;5032730;28;20065;-71
2023/04/22 09:46:34;;;;;;;14.65;10.75;;;;;;;12.67;100.00;100721.03;5033111;28;20064;-73
2023/04/22 09:49:00;;;;;;;12.60;10.05;;;;;;;12.84;100.00;100716.66;5032835;28;20111;-71
2023/04/22 09:51:26;;;;;;;12.13;10.00;;;;;;;12.93;100.00;100734.41;5031265;28;20053;-71
2023/04/22 09:54:09;;;;;;;11.27;10.07;;;;;;;13.16;100.00;100752.56;5032678;28;20076;-71
2023/04/22 09:56:48;;;;;;;11.13;9.35;;;;;;;13.67;100.00;100748.16;5033196;28;20034;-72
2023/04/22 09:59:24;;;;;;;11.68;9.48;;;;;;;14.54;100.00;100763.06;5033162;28;20029;-72
2023/04/22 10:01:54;;;;;;;14.10;9.68;;;;;;;15.12;100.00;100762.03;5033175;28;20026;-71
2023/04/22 10:04:23;;;;;;;11.43;9.77;;;;;;;15.65;100.00;100761.53;5032792;28;20088;-73
2023/04/22 10:06:49;;;;;;;10.25;8.90;;;;;;;16.26;100.00;100758.19;5032556;28;20589;-71
2023/04/22 10:09:20;;;;;;;15.60;9.93;;;;;;;16.72;88.27;100755.50;5032612;28;20033;-71
2023/04/22 10:11:46;;;;;;;11.00;9.20;;;;;;;16.69;85.61;100761.22;5033186;28;20034;-72
2023/04/22 10:14:15;;;;;;;11.02;9.30;;;;;;;16.37;87.41;100753.25;5032966;28;20302;-72
2023/04/22 10:16:44;;;;;;;20.05;9.70;;;;;;;16.21;89.15;100753.38;5032040;28;20079;-72
2023/04/22 10:19:13;;;;;;;13.23;9.32;;;;;;;15.85;88.62;100761.97;5033106;28;20033;-72
2023/04/22 10:21:44;;;;;;;10.23;7.95;;;;;;;15.73;86.53;100756.13;5037221;28;20104;-71
2023/04/22 10:24:16;;;;;;;9.88;8.05;;;;;;;15.51;88.85;100763.94;5036524;28;20029;-72
2023/04/22 10:27:00;;;;;;;11.63;8.43;;;;;;;15.06;93.09;100759.19;5036515;28;20037;-72
2023/04/22 10:29:34;;;;;;;10.05;8.48;;;;;;;14.76;100.00;100759.75;5036159;28;20037;-72
2023/04/22 10:32:09;;;;;;;10.88;8.98;;;;;;;14.29;100.00;100755.84;5036787;28;20029;-72
2023/04/22 10:34:36;;;;;;;13.40;9.45;;;;;;;13.81;100.00;100741.38;5036781;28;20363;-72
2023/04/22 10:37:09;;;;;;;12.25;9.40;;;;;;;13.42;100.00;100736.56;5036316;28;20029;-72
2023/04/22 10:39:35;;;;;;;16.63;12.15;;;;;;;13.27;100.00;100755.00;5036296;28;20025;-72
2023/04/22 10:42:08;;;;;;;21.77;14.52;;;;;;;13.06;100.00;100766.03;5036109;28;20026;-72
2023/04/22 10:44:51;;;;;;;20.85;14.45;;;;;;;12.76;100.00;100767.31;5036272;28;20037;-71
2023/04/22 10:47:37;;;;;;;21.73;16.05;;;;;;;12.37;100.00;100781.00;5036130;28;20026;-72
2023/04/22 10:50:30;;;;;;;26.70;17.15;;;;;;;11.98;100.00;100774.09;5034587;28;20033;-71
2023/04/22 10:53:19;;;;;;;26.50;18.42;;;;;;;11.71;100.00;100766.94;5036345;28;20033;-71
2023/04/22 10:55:50;;;;;;;26.70;17.45;;;;;;;11.52;100.00;100759.88;5036013;28;20033;-70
2023/04/22 10:58:20;;;;;;;30.08;19.98;;;;;;;11.38;100.00;100751.38;5036469;28;20036;-70
2023/04/22 11:00:51;;;;;;;28.10;18.88;;;;;;;11.25;100.00;100751.69;5035758;28;20168;-70
2023/04/22 11:03:17;;;;;;;31.30;21.20;;;;;;;11.14;100.00;100754.53;5035872;28;20538;-70